Hermitage, Missouri
Current Conditions -  °F | °C
As of 8:15 AM on Friday 31 Oct 2014 (Local Time) from KH21 Reporting Station
Overcast Overcast  
Wind Chill: 37°   Ceiling: 2500
Heat Index: 45°   Visibility: 10mi
Dew Point: 34°   Wind: 17mph
Humidity: 66%   Direction: 340°NNW
Pressure: 30.29"   Gusts: 24mph
Location:  37.94°N, 93.32°W
Report Text: KH21 311315Z AUTO 34015G21KT 10SM OVC025 07/01 A3029 RMK AO2
Loading
Personal Weather Stations






























Interactive Weather Map
Tropical Storm Tracking
New forecast layout! Learn more

10-Day Weather Forecast

Advertisements
Track Severe Weather on mobile